Merced, California
Current Conditions -  °F | °C
As of 3:53 PM on Friday 19 Dec 2014 (Local Time) from KMCE Reporting Station
Light Rain Light Rain  
Wind Chill: 56°   Ceiling: 3800
Heat Index: 56°   Visibility: 10mi
Dew Point: 48°   Wind: 5mph
Humidity: 75%   Direction: 210°SSW
Pressure: 30.18"   Gusts: NA
Location:  37.3°N, 120.48°W
Report Text: KMCE 192353Z AUTO 21004KT 10SM -RA OVC038 13/09 A3018 RMK AO2 RAB46 SLP218 P0000 60000 T01330089 10144 20111 55002
Loading
Personal Weather Stations






























Interactive Weather Map New forecast layout! Learn more

10-Day Weather Forecast

Advertisements
Track Severe Weather on mobile